createdAt,value
2019-02-02T06:20:51.101Z,100.00
2019-02-02T06:23:20.666Z,100.00
2019-02-02T06:25:50.295Z,100.00
2019-02-02T06:28:19.948Z,99.50
2019-02-02T06:30:49.551Z,96.48
2019-02-02T06:33:19.096Z,93.34
2019-02-02T06:35:48.845Z,92.39
2019-02-02T06:38:18.382Z,89.74
2019-02-02T06:40:47.931Z,89.30
2019-02-02T06:43:17.675Z,88.02
2019-02-02T06:45:47.232Z,88.78
2019-02-02T06:48:16.825Z,88.15
2019-02-02T06:50:46.406Z,87.54
2019-02-02T06:53:16.005Z,87.76
2019-02-02T06:55:45.732Z,87.13
2019-02-02T06:58:15.263Z,86.83
2019-02-02T07:00:44.794Z,85.19
2019-02-02T07:03:14.524Z,84.76
2019-02-02T07:05:44.088Z,86.17
2019-02-02T07:08:13.633Z,85.00
2019-02-02T07:10:43.315Z,84.83
2019-02-02T07:13:12.916Z,82.96
2019-02-02T07:15:42.574Z,80.06
2019-02-02T07:18:12.143Z,79.21
2019-02-02T07:20:41.694Z,78.85
2019-02-02T07:23:11.267Z,77.99
2019-02-02T07:25:40.962Z,76.78
2019-02-02T07:28:10.595Z,76.03
2019-02-02T07:30:40.110Z,75.33
2019-02-02T07:33:09.634Z,72.31
2019-02-02T07:35:39.229Z,74.24
2019-02-02T07:38:08.893Z,71.46
2019-02-02T07:40:38.520Z,72.19
2019-02-02T07:43:08.112Z,70.34
2019-02-02T07:45:37.754Z,70.37
2019-02-02T07:48:07.427Z,70.50
2019-02-02T07:50:37.073Z,69.94
2019-02-02T07:53:06.697Z,69.99
2019-02-02T07:55:36.358Z,69.00
2019-02-02T07:58:05.951Z,68.05
2019-02-02T08:00:41.532Z,66.08
2019-02-02T08:03:10.509Z,65.79
2019-02-02T08:05:40.142Z,64.45
2019-02-02T08:08:09.758Z,63.56
2019-02-02T08:10:39.361Z,63.36
2019-02-02T08:13:08.933Z,61.28
2019-02-02T08:15:38.540Z,61.07
2019-02-02T08:18:08.251Z,60.96
2019-02-02T08:20:37.961Z,59.71
2019-02-02T08:23:07.512Z,59.75
2019-02-02T08:25:37.025Z,58.44
2019-02-02T08:28:06.655Z,58.05
2019-02-02T08:30:36.428Z,57.94
2019-02-02T08:33:06.422Z,56.55
2019-02-02T08:35:35.954Z,56.99
2019-02-02T08:38:05.979Z,56.30
2019-02-02T08:40:35.535Z,57.40
2019-02-02T08:43:05.158Z,58.04
2019-02-02T08:45:34.684Z,56.66
2019-02-02T08:48:04.269Z,56.93
2019-02-02T08:50:39.026Z,57.16
2019-02-02T08:53:08.553Z,57.20
2019-02-02T08:55:38.304Z,57.08
2019-02-02T08:58:08.021Z,57.12
2019-02-02T09:00:37.555Z,56.83
2019-02-02T09:03:07.269Z,56.39
2019-02-02T09:05:36.860Z,57.13
2019-02-02T09:08:06.480Z,57.00
2019-02-02T09:10:36.566Z,55.79
2019-02-02T09:13:06.342Z,55.59
2019-02-02T09:15:35.898Z,55.21
2019-02-02T09:18:05.606Z,54.31
2019-02-02T09:20:35.200Z,53.85
2019-02-02T09:23:06.720Z,53.50
2019-02-02T09:25:36.609Z,54.26
2019-02-02T09:28:06.144Z,54.92
2019-02-02T09:30:37.601Z,53.25
2019-02-02T09:33:07.776Z,54.14
2019-02-02T09:35:37.465Z,52.47
2019-02-02T09:38:07.196Z,51.71
2019-02-02T09:40:36.738Z,51.03
2019-02-02T09:43:06.340Z,49.44
2019-02-02T09:45:36.968Z,48.94
2019-02-02T09:48:06.653Z,48.33
2019-02-02T09:50:36.216Z,47.92
2019-02-02T09:53:05.969Z,45.66
2019-02-02T09:55:35.745Z,45.08
2019-02-02T09:58:08.999Z,44.95
2019-02-02T10:00:38.770Z,44.79
2019-02-02T10:03:08.354Z,46.88
2019-02-02T10:05:37.984Z,45.96
2019-02-02T10:08:07.618Z,44.40
2019-02-02T10:10:37.326Z,42.65
2019-02-02T10:13:07.924Z,39.80
2019-02-02T10:15:37.581Z,40.48
2019-02-02T10:18:07.320Z,39.88
2019-02-02T10:20:36.851Z,38.60
2019-02-02T10:23:06.478Z,40.81
2019-02-02T10:25:36.016Z,40.71
2019-02-02T10:28:05.744Z,38.97
2019-02-02T10:30:43.098Z,40.90
2019-02-02T10:33:13.757Z,42.45
2019-02-02T10:35:43.305Z,44.28
2019-02-02T10:38:16.088Z,44.12
2019-02-02T10:40:48.967Z,45.42
2019-02-02T10:43:21.648Z,42.79
2019-02-02T10:45:51.244Z,44.02
2019-02-02T10:48:20.875Z,42.37
2019-02-02T10:50:50.575Z,44.49
2019-02-02T10:53:20.090Z,45.29
2019-02-02T10:55:49.675Z,44.67
2019-02-02T10:58:19.253Z,42.56
2019-02-02T11:00:48.811Z,42.13
2019-02-02T11:03:18.458Z,41.14
2019-02-02T11:05:48.122Z,41.80
2019-02-02T11:08:17.664Z,36.94
2019-02-02T11:10:47.320Z,38.54
2019-02-02T11:13:16.911Z,35.43
2019-02-02T11:15:46.490Z,36.00
2019-02-02T11:18:16.201Z,35.60
2019-02-02T11:20:46.014Z,35.35
2019-02-02T11:23:15.638Z,35.98
2019-02-02T11:25:45.481Z,37.80
2019-02-02T11:28:18.453Z,37.23
2019-02-02T11:30:48.052Z,36.11
2019-02-02T11:33:17.550Z,39.40
2019-02-02T11:35:47.217Z,38.93
2019-02-02T11:38:16.811Z,37.10
2019-02-02T11:40:46.367Z,36.83
2019-02-02T11:43:16.064Z,36.80
2019-02-02T11:45:45.679Z,36.71
2019-02-02T11:48:15.313Z,36.07
2019-02-02T11:50:44.947Z,32.94
2019-02-02T11:53:14.492Z,30.33
2019-02-02T11:55:44.113Z,29.66
2019-02-02T11:58:13.636Z,27.32
2019-02-02T12:00:43.723Z,27.56
2019-02-02T12:03:13.390Z,27.53
2019-02-02T12:05:42.991Z,29.86
2019-02-02T12:08:12.545Z,31.33
2019-02-02T12:10:42.163Z,32.13
2019-02-02T12:13:11.811Z,34.24
2019-02-02T12:15:41.361Z,35.14
2019-02-02T12:18:11.940Z,36.29
2019-02-02T12:20:41.671Z,37.47
2019-02-02T12:23:11.224Z,37.71
2019-02-02T12:25:40.884Z,37.74
2019-02-02T12:28:10.454Z,38.76
2019-02-02T12:30:40.074Z,39.74
2019-02-02T12:33:09.633Z,38.47
2019-02-02T12:35:39.199Z,38.78
2019-02-02T12:38:08.854Z,38.30
2019-02-02T12:40:38.624Z,38.64
2019-02-02T12:43:08.175Z,40.33
2019-02-02T12:45:41.344Z,38.10
2019-02-02T12:48:11.040Z,39.60
2019-02-02T12:50:40.597Z,39.38
2019-02-02T12:53:10.323Z,37.16
2019-02-02T12:55:39.869Z,38.03
2019-02-02T12:58:09.581Z,38.92
2019-02-02T13:00:39.272Z,38.51
2019-02-02T13:03:09.243Z,38.13
2019-02-02T13:05:39.355Z,37.95
2019-02-02T13:08:09.027Z,38.62
2019-02-02T13:10:38.567Z,38.75
2019-02-02T13:13:08.135Z,39.34
2019-02-02T13:15:37.708Z,39.68
2019-02-02T13:18:07.449Z,39.36
2019-02-02T13:20:37.115Z,39.42
2019-02-02T13:23:06.675Z,39.17
2019-02-02T13:25:36.223Z,39.54
2019-02-02T13:28:05.784Z,39.64
2019-02-02T13:30:36.382Z,40.28
2019-02-02T13:33:08.884Z,40.99
2019-02-02T13:35:41.036Z,41.25
2019-02-02T13:38:10.579Z,41.49
2019-02-02T13:40:40.104Z,41.58
2019-02-02T13:43:09.695Z,41.97
2019-02-02T13:45:39.173Z,42.75
2019-02-02T13:48:08.818Z,42.72
2019-02-02T13:50:38.465Z,42.98
2019-02-02T13:53:08.920Z,43.88
2019-02-02T13:55:39.866Z,43.84
2019-02-02T13:58:09.611Z,44.09
2019-02-02T14:00:39.177Z,45.06
2019-02-02T14:03:08.755Z,45.05
2019-02-02T14:05:38.808Z,44.89
2019-02-02T14:08:08.371Z,45.72
2019-02-02T14:10:38.029Z,46.14
2019-02-02T14:13:10.628Z,46.74
2019-02-02T14:15:40.644Z,47.32
2019-02-02T14:18:10.188Z,47.25
2019-02-02T14:20:39.721Z,47.38
2019-02-02T14:23:09.435Z,47.65
2019-02-02T14:25:39.047Z,48.94
2019-02-02T14:28:08.575Z,48.07
2019-02-02T14:30:38.294Z,49.52
2019-02-02T14:33:14.138Z,49.73
2019-02-02T14:35:39.325Z,50.02
2019-02-02T14:38:08.923Z,49.73
2019-02-02T14:40:38.643Z,50.74
2019-02-02T14:43:08.354Z,50.41
2019-02-02T14:45:37.867Z,50.68
2019-02-02T14:48:07.553Z,51.30
2019-02-02T14:50:37.110Z,51.48
2019-02-02T14:53:06.693Z,51.79
2019-02-02T14:55:36.251Z,52.47
2019-02-02T14:58:06.714Z,52.66
2019-02-02T15:00:36.326Z,52.68
2019-02-02T15:03:05.920Z,52.47
2019-02-02T15:05:43.113Z,52.91
2019-02-02T15:08:06.821Z,53.38
2019-02-02T15:10:36.372Z,53.71
2019-02-02T15:13:05.948Z,54.06
2019-02-02T15:15:35.523Z,54.20
2019-02-02T15:18:05.099Z,54.50
2019-02-02T15:20:38.430Z,54.89
2019-02-02T15:23:08.323Z,55.07
2019-02-02T15:25:37.895Z,55.61
2019-02-02T15:28:07.624Z,56.00
2019-02-02T15:30:37.588Z,55.66
2019-02-02T15:33:07.510Z,55.81
2019-02-02T15:35:37.139Z,56.41
2019-02-02T15:38:06.805Z,56.49
2019-02-02T15:40:36.422Z,56.65
2019-02-02T15:43:06.241Z,57.24
2019-02-02T15:45:35.909Z,58.03
2019-02-02T15:48:05.625Z,57.72
2019-02-02T15:50:35.236Z,58.14
2019-02-02T15:53:04.839Z,58.45
2019-02-02T15:55:34.442Z,58.65
2019-02-02T15:58:04.029Z,58.94
2019-02-02T16:00:35.627Z,58.60
2019-02-02T16:03:05.241Z,58.79
2019-02-02T16:05:35.478Z,59.82
2019-02-02T16:08:08.112Z,60.14
2019-02-02T16:10:38.242Z,59.57
2019-02-02T16:13:07.937Z,59.18
2019-02-02T16:15:37.488Z,59.43
2019-02-02T16:18:07.138Z,59.02
2019-02-02T16:20:41.774Z,59.48
2019-02-02T16:23:10.089Z,59.10
2019-02-02T16:25:39.811Z,58.60
2019-02-02T16:28:09.425Z,59.08
2019-02-02T16:30:39.031Z,59.07
2019-02-02T16:33:08.566Z,59.01
2019-02-02T16:35:38.334Z,59.13
2019-02-02T16:38:07.901Z,59.40
2019-02-02T16:40:37.421Z,60.38
2019-02-02T16:43:07.135Z,59.76
2019-02-02T16:45:36.724Z,59.98
2019-02-02T16:48:06.906Z,59.96
2019-02-02T16:50:36.518Z,59.65
2019-02-02T16:53:06.168Z,60.04
2019-02-02T16:55:35.715Z,59.77
2019-02-02T16:58:05.525Z,60.56
2019-02-02T17:00:35.128Z,61.38
2019-02-02T17:03:04.655Z,62.35
2019-02-02T17:05:34.277Z,62.60
2019-02-02T17:08:03.840Z,63.47
2019-02-02T17:10:35.381Z,63.61
2019-02-02T17:13:05.217Z,64.07
2019-02-02T17:15:34.785Z,64.79
2019-02-02T17:18:04.641Z,66.53
2019-02-02T17:20:36.522Z,65.97
2019-02-02T17:23:06.246Z,67.05
2019-02-02T17:25:35.853Z,67.84
2019-02-02T17:28:05.908Z,65.94
2019-02-02T17:30:35.508Z,66.54
2019-02-02T17:33:07.577Z,65.43
2019-02-02T17:35:37.117Z,65.53
2019-02-02T17:38:06.673Z,64.52
2019-02-02T17:40:36.243Z,64.40
2019-02-02T17:43:05.763Z,64.64
2019-02-02T17:45:35.293Z,63.39
2019-02-02T17:48:04.907Z,62.45
2019-02-02T17:50:34.476Z,62.26
2019-02-02T17:53:04.014Z,61.52
2019-02-02T17:55:33.575Z,61.69
2019-02-02T17:58:03.129Z,61.38
2019-02-02T18:00:43.663Z,61.59
2019-02-02T18:03:13.301Z,61.59
2019-02-02T18:05:42.899Z,61.53
2019-02-02T18:08:12.462Z,61.50
2019-02-02T18:10:42.160Z,61.34
2019-02-02T18:13:11.759Z,61.88
2019-02-02T18:15:41.445Z,61.68
2019-02-02T18:18:11.187Z,61.30
2019-02-02T18:20:40.895Z,61.53
2019-02-02T18:23:10.425Z,61.35
2019-02-02T18:25:40.050Z,61.36
2019-02-02T18:28:09.610Z,61.33
2019-02-02T18:30:39.258Z,60.91
2019-02-02T18:33:08.923Z,60.89
2019-02-02T18:35:38.487Z,60.34
2019-02-02T18:38:08.149Z,60.38
2019-02-02T18:40:39.975Z,60.69
2019-02-02T18:43:09.089Z,61.07
2019-02-02T18:45:38.781Z,60.86
2019-02-02T18:48:08.412Z,61.55
2019-02-02T18:50:38.103Z,61.11
2019-02-02T18:53:07.653Z,61.27
2019-02-02T18:55:43.103Z,61.36
2019-02-02T18:58:13.006Z,61.84
2019-02-02T19:00:42.979Z,62.78
2019-02-02T19:03:13.517Z,62.66
2019-02-02T19:05:43.761Z,62.82
2019-02-02T19:08:13.302Z,63.45
2019-02-02T19:10:43.394Z,63.91
2019-02-02T19:13:12.932Z,65.32
2019-02-02T19:15:42.554Z,65.63
2019-02-02T19:18:12.097Z,65.66
2019-02-02T19:20:44.872Z,66.89
2019-02-02T19:23:24.872Z,66.64
2019-02-02T19:25:45.885Z,66.07
2019-02-02T19:28:15.420Z,66.58
2019-02-02T19:30:45.043Z,67.39
2019-02-02T19:33:14.582Z,66.76
2019-02-02T19:35:44.150Z,67.16
2019-02-02T19:38:13.789Z,67.82
2019-02-02T19:40:43.348Z,68.24
2019-02-02T19:43:13.002Z,67.42
2019-02-02T19:45:42.586Z,67.29
2019-02-02T19:48:12.215Z,67.06
2019-02-02T19:50:41.906Z,66.96
2019-02-02T19:53:11.489Z,66.14
2019-02-02T19:55:40.995Z,66.39
2019-02-02T19:58:10.542Z,66.53
2019-02-02T20:00:40.100Z,67.15
2019-02-02T20:03:09.742Z,67.39
2019-02-02T20:05:44.265Z,66.66
2019-02-02T20:08:13.901Z,66.54
2019-02-02T20:10:43.576Z,65.57
2019-02-02T20:13:13.179Z,65.57
2019-02-02T20:15:42.797Z,64.99
2019-02-02T20:18:12.340Z,64.99
2019-02-02T20:20:46.362Z,66.61
2019-02-02T20:23:16.192Z,66.91
2019-02-02T20:25:48.936Z,69.01
2019-02-02T20:28:19.957Z,69.45
2019-02-02T20:30:49.684Z,70.02
2019-02-02T20:33:20.097Z,70.55
2019-02-02T20:35:50.078Z,71.32
2019-02-02T20:38:19.735Z,71.21
2019-02-02T20:40:49.303Z,71.78
2019-02-02T20:43:19.260Z,72.15
2019-02-02T20:45:51.999Z,73.65
2019-02-02T20:48:21.680Z,72.71
2019-02-02T20:50:51.399Z,72.62
2019-02-02T20:53:21.386Z,73.87
2019-02-02T20:55:51.012Z,72.72
2019-02-02T20:58:20.904Z,72.07
2019-02-02T21:00:50.574Z,71.65
2019-02-02T21:03:20.298Z,72.26
2019-02-02T21:05:52.340Z,73.83
2019-02-02T21:08:21.668Z,73.29
2019-02-02T21:10:51.471Z,73.02
2019-02-02T21:13:21.208Z,71.40
2019-02-02T21:15:50.987Z,71.93
2019-02-02T21:18:20.805Z,72.25
2019-02-02T21:20:50.459Z,72.83
2019-02-02T21:23:21.240Z,73.05
2019-02-02T21:25:51.244Z,73.75
2019-02-02T21:28:21.092Z,74.50
2019-02-02T21:30:50.923Z,75.26
2019-02-02T21:33:20.607Z,75.67
2019-02-02T21:35:50.578Z,76.33
2019-02-02T21:38:21.797Z,75.75
2019-02-02T21:40:51.404Z,75.98
2019-02-02T21:43:21.224Z,75.87
2019-02-02T21:45:50.776Z,74.68
2019-02-02T21:48:20.431Z,75.70
2019-02-02T21:50:50.005Z,75.49
2019-02-02T21:53:19.653Z,75.93
2019-02-02T21:55:49.352Z,76.12
2019-02-02T21:58:19.094Z,76.63
2019-02-02T22:00:48.738Z,76.52
2019-02-02T22:03:18.449Z,76.66
2019-02-02T22:05:48.012Z,77.20
2019-02-02T22:08:17.663Z,77.54
2019-02-02T22:10:47.294Z,78.06
2019-02-02T22:13:16.955Z,78.22
2019-02-02T22:15:46.619Z,77.46
2019-02-02T22:18:16.252Z,78.35
2019-02-02T22:20:45.868Z,75.78
2019-02-02T22:23:15.399Z,75.94
2019-02-02T22:25:45.029Z,76.14
2019-02-02T22:28:14.619Z,76.24
2019-02-02T22:30:44.155Z,76.62
2019-02-02T22:33:13.679Z,75.57
2019-02-02T22:35:43.551Z,73.62
2019-02-02T22:38:13.076Z,71.76
2019-02-02T22:40:42.646Z,69.68
2019-02-02T22:43:12.371Z,70.76
2019-02-02T22:45:42.109Z,71.60
2019-02-02T22:48:12.138Z,72.50
2019-02-02T22:50:41.711Z,72.88
2019-02-02T22:53:11.241Z,73.54
2019-02-02T22:55:40.813Z,72.92
2019-02-02T22:58:10.364Z,71.26
2019-02-02T23:01:09.843Z,70.27
2019-02-02T23:03:48.381Z,69.77
2019-02-02T23:06:54.050Z,69.15
2019-02-02T23:10:15.369Z,69.52
2019-02-02T23:13:15.844Z,70.08
2019-02-02T23:16:26.450Z,72.39
2019-02-02T23:18:56.188Z,74.19
2019-02-02T23:21:26.246Z,76.05
2019-02-02T23:23:55.967Z,76.57
2019-02-02T23:26:25.597Z,77.41
2019-02-02T23:28:55.272Z,77.99
2019-02-02T23:31:25.303Z,78.69
2019-02-02T23:33:54.910Z,79.33
2019-02-02T23:36:24.646Z,79.98
2019-02-02T23:38:54.228Z,80.89
2019-02-02T23:41:23.841Z,81.85
2019-02-02T23:43:53.771Z,82.90
2019-02-02T23:46:23.350Z,83.77
2019-02-02T23:48:52.964Z,84.09
2019-02-02T23:51:22.669Z,85.24
2019-02-02T23:53:52.378Z,86.01
2019-02-02T23:56:22.002Z,86.29
2019-02-02T23:58:51.518Z,86.63
